• Join FlightAware (Why Join?)
  • Login
  • US Flag 
03:03AM EDT


 

Airport Tracker/Info


-or-


 

Live Flight TrackerFlight Track Log ✈ SWA1775 ✈ 26-Apr-2013 ✈ KBWI - KMDW

Flight Track Log - Related Links

Times and Time Zones

All times are in EDT time to prevent confusion due to time zone crossing. See the SWA1775 flight status page for this flight to view local times or setup timezone preferences in your user account.

Time Position Orientation Groundspeed Altitude Reporting Facility
EDT Latitude Longitude Course Direction KTS MPH feet Rate Location/Type
09:27PM 39.1833 -76.8333 211° Southwest 255 293 4,400  Level Potomac TRACON
09:28PM 39.2167 -76.9167 297° West 261 300 8,700 3,480 Climbing Potomac TRACON
09:29PM 39.1833 -77.0000 243° Southwest 283 326 11,400 2,760 Climbing Potomac TRACON
09:30PM 39.1500 -77.1167 250° West 342 394 14,300 2,100 Climbing Potomac TRACON
09:32PM 39.0936 -77.2365 211° Southwest  Level FlightAware Approximate
09:32PM 39.1133 -77.3331 258° West 356 410 17,200  Level Washington Center
09:33PM 39.0950 -77.4558 259° West 356 410 20,300 2,760 Climbing Washington Center
09:34PM 39.0742 -77.5728 257° West 351 404 22,700 2,460 Climbing Washington Center
09:35PM 39.0558 -77.6819 258° West 351 404 25,300 2,160 Climbing Washington Center
09:36PM 39.0303 -77.8175 256° West 351 404 27,000 1,860 Climbing Washington Center
09:37PM 39.0092 -77.9478 258° West 364 419 29,000 1,680 Climbing Washington Center
09:38PM 38.9858 -78.0753 257° West 370 426 30,500 2,280 Climbing Washington Center
09:39PM 38.9622 -78.2000 256° West 370 426 33,600 1,740 Climbing Washington Center
09:40PM 38.9639 -78.3200 271° West 357 411 34,000 180 Climbing Washington Center
09:41PM 38.9675 -78.4322 272° West 334 384 34,000  Level Washington Center
09:42PM 38.9708 -78.5500 272° West 328 377 34,000  Level Washington Center
09:43PM 38.9742 -78.6675 272° West 328 377 34,000  Level Washington Center
09:44PM 38.9772 -78.7853 272° West 328 377 34,000 -660 Level Washington Center
09:45PM 38.9792 -78.8733 272° West 328 377 32,700 -1,980 Descending Washington Center
09:46PM 38.9856 -79.0125 273° West 323 372 30,100 -1,380 Descending Washington Center
09:47PM 38.9883 -79.1408 272° West 347 399 30,000 -60 Descending Washington Center
09:48PM 38.9906 -79.2692 271° West 360 414 30,000  Level Washington Center
09:49PM 38.9931 -79.3950 272° West 360 414 30,000  Level Washington Center
09:50PM 38.9972 -79.5233 272° West 365 420 30,000  Level Washington Center
09:51PM 38.9994 -79.6436 271° West 373 429 30,000  Level Washington Center
09:52PM 39.0014 -79.7719 271° West 373 429 30,000  Level Washington Center
09:53PM 39.0047 -79.9139 272° West 362 417 30,000  Level Washington Center
09:55PM 39.0050 -80.1581 270° West 356 410 30,000  Level Indianapolis Center
09:56PM 39.0075 -80.2847 271° West 354 407 30,000  Level Indianapolis Center
09:57PM 39.0081 -80.4114 270° West 355 409 30,000  Level Indianapolis Center
09:58PM 39.0103 -80.5378 271° West 354 407 30,000  Level Indianapolis Center
09:59PM 39.0389 -80.6544 288° West 360 414 30,000  Level Indianapolis Center
10:00PM 39.0869 -80.7614 300° West 349 402 30,000  Level Indianapolis Center
10:01PM 39.1358 -80.8686 300° West 348 400 30,000  Level Indianapolis Center
10:02PM 39.1850 -80.9739 301° West 346 398 30,000  Level Indianapolis Center
10:03PM 39.2431 -81.1028 300° West 346 398 30,000  Level Indianapolis Center
10:04PM 39.2922 -81.2094 301° West 346 398 30,000  Level Indianapolis Center
10:05PM 39.3397 -81.3175 300° West 348 400 30,000  Level Indianapolis Center
10:06PM 39.3883 -81.4233 301° West 345 397 30,000  Level Indianapolis Center
10:07PM 39.4364 -81.5317 300° West 347 399 30,000  Level Indianapolis Center
10:08PM 39.4844 -81.6403 300° West 348 400 30,000  Level Indianapolis Center
10:09PM 39.5328 -81.7489 300° West 349 402 30,000  Level Indianapolis Center
10:10PM 39.5811 -81.8575 300° West 348 400 30,000  Level Indianapolis Center
10:11PM 39.6283 -81.9647 300° West 345 397 30,000  Level Indianapolis Center
10:12PM 39.6772 -82.0750 300° West 349 402 30,000  Level Indianapolis Center
10:13PM 39.7303 -82.1961 300° West 350 403 30,000  Level Indianapolis Center
10:14PM 39.7786 -82.3064 300° West 349 402 30,000  Level Indianapolis Center
10:15PM 39.8275 -82.4183 300° West 355 409 30,000  Level Indianapolis Center
10:16PM 39.8753 -82.5294 299° West 351 404 30,000  Level Indianapolis Center
10:17PM 39.9239 -82.6403 300° West 351 404 30,000  Level Indianapolis Center
10:18PM 39.9717 -82.7519 299° West 350 403 30,000  Level Indianapolis Center
10:19PM 40.0189 -82.8633 299° West 349 402 30,000  Level Indianapolis Center
10:20PM 40.0678 -82.9742 300° West 350 403 30,000  Level Indianapolis Center
10:21PM 40.1150 -83.0867 299° West 352 405 30,000  Level Indianapolis Center
10:22PM 40.1619 -83.1986 299° West 351 404 30,000  Level Indianapolis Center
10:23PM 40.2106 -83.3108 300° West 354 407 30,000  Level Indianapolis Center
10:24PM 40.2642 -83.4417 298° West 351 404 30,000  Level Indianapolis Center
10:25PM 40.3122 -83.5533 299° West 351 404 30,000 -600 Level Indianapolis Center
10:26PM 40.3594 -83.6647 299° West 348 400 28,900 -1,020 Descending Indianapolis Center
10:27PM 40.4050 -83.7778 298° West 347 399 28,000 -480 Descending Indianapolis Center
10:28PM 40.4536 -83.8936 299° West 357 411 28,000  Level Indianapolis Center
10:29PM 40.5019 -84.0106 299° West 360 414 28,000  Level Indianapolis Center
10:30PM 40.5500 -84.1261 299° West 359 413 28,000  Level Indianapolis Center
10:31PM 40.5969 -84.2436 298° West 361 415 28,000 -60 Level Indianapolis Center
10:32PM 40.6361 -84.3664 293° West 362 417 27,900  Descending Indianapolis Center
10:33PM 40.6775 -84.4892 294° West 354 407 28,000  Climbing Chicago Center
10:34PM 40.7161 -84.6075 293° West 352 405 28,000  Level Chicago Center
10:35PM 40.7572 -84.7308 294° West 361 415 28,000  Level Chicago Center
10:36PM 40.7994 -84.8617 293° West 381 438 28,000  Level Chicago Center
10:37PM 40.8414 -84.9894 293° West 382 440 28,000  Level Chicago Center
10:38PM 40.8822 -85.1186 293° West 381 438 28,000  Level Chicago Center
10:39PM 40.9236 -85.2486 293° West 383 441 28,000 -540 Level Chicago Center
10:40PM 40.9664 -85.3778 294° West 381 438 27,000 -1,020 Descending Chicago Center
10:41PM 41.0089 -85.5122 293° West 391 450 26,000 -1,140 Descending Chicago Center
10:42PM 41.0586 -85.6733 292° West 395 455 24,800 -1,020 Descending Chicago Center
10:43PM 41.1025 -85.8081 293° West 397 457 24,000 -420 Descending Chicago Center
10:45PM 41.1436 -85.9428 292° West 394 453 24,000 -720 Level Chicago Center
10:46PM 41.1858 -86.0747 293° West 389 448 22,600 -1,920 Descending Chicago Center
10:47PM 41.2247 -86.2028 292° West 376 433 20,100 -2,400 Descending Chicago Center
10:48PM 41.2617 -86.3242 292° West 358 412 17,700 -2,400 Descending Chicago Center
10:49PM 41.2992 -86.4458 292° West 354 407 15,300 -2,520 Descending Chicago Center
10:50PM 41.3361 -86.5644 293° West 350 403 12,600 -2,100 Descending Chicago Center
10:51PM 41.3742 -86.6889 292° West 361 415 11,000 -1,320 Descending Chicago Center
10:52PM 41.4119 -86.8164 292° West 342 394 10,000 -540 Descending Chicago Center
10:53PM 41.4447 -86.9200 293° West 305 351 10,000 -780 Level Chicago Center
10:54PM 41.4717 -87.0117 291° West 271 312 8,500 -1,560 Descending Chicago Center
10:55PM 41.5008 -87.1072 292° West 278 320 6,900 -1,260 Descending Chicago Center
10:56PM 41.5500 -87.2000 305° West 279 321 6,000 -480 Descending Chicago TRACON
10:57PM 41.6000 -87.2833 309° West 269 310 6,000 -240 Level Chicago TRACON
10:58PM 41.6333 -87.3667 298° West 279 321 5,600 -840 Descending Chicago TRACON
10:59PM 41.6833 -87.4500 309° West 269 310 4,400 -840 Descending Chicago TRACON
11:00PM 41.7283 -87.5244 309° West 263 303 3,900 -600 Descending Chicago Center
11:01PM 41.7808 -87.5428 345° North 234 269 3,200 -780 Descending Chicago Center
11:02PM 41.8053 -87.5958 302° West 198 228 2,400 -660 Descending Chicago Center
11:03PM 41.8167 -87.6500 286° West 147 169 1,900 -360 Descending Chicago TRACON
11:04PM 41.8333 -87.7000 294° West 125 144 1,800 -540 Descending Chicago TRACON
11:05PM 41.8000 -87.7333 217° Southwest 120 138 900 -900 Descending Chicago TRACON
11:07PM 41.7833 -87.7500 340° North  Level FlightAware Approximate